Time;durP1;ratioP1;P1;durP2;ratioP2;P2;SDS_P1;SDS_P2;PMS_P1;PMS_P2;Temp;Humidity;BMP_temperature;BMP_pressure;BME280_temperature;BME280_humidity;BME280_pressure;Samples;Min_cycle;Max_cycle;Signal;HPM_P1;HPM_P2
2023/10/06 00:03:35;;;;;;;5.30;3.83;;;13.50;35.30;;;;;;10436812;28;20560;-78
2023/10/06 00:08:40;;;;;;;5.87;4.03;;;13.40;35.60;;;;;;10428941;28;20773;-78
2023/10/06 00:14:00;;;;;;;5.80;3.80;;;13.50;35.90;;;;;;10429807;28;21196;-78
2023/10/06 00:19:19;;;;;;;6.93;4.47;;;13.40;35.60;;;;;;10432593;28;20664;-77
2023/10/06 00:24:25;;;;;;;4.87;3.70;;;13.40;35.60;;;;;;10429331;28;20229;-78
2023/10/06 00:29:29;;;;;;;5.83;4.00;;;13.30;35.80;;;;;;10428341;28;20236;-78
2023/10/06 00:34:34;;;;;;;4.47;3.50;;;13.30;35.60;;;;;;10429907;28;20311;-78
2023/10/06 00:39:42;;;;;;;5.73;3.63;;;13.30;35.70;;;;;;10430591;28;20233;-78
2023/10/06 00:44:46;;;;;;;4.73;3.63;;;13.30;35.80;;;;;;10428332;28;20229;-78
2023/10/06 00:49:55;;;;;;;4.83;3.53;;;13.30;35.50;;;;;;10426118;28;20584;-78
2023/10/06 00:55:02;;;;;;;5.97;4.17;;;13.30;35.50;;;;;;10430394;28;20240;-78
2023/10/06 01:00:16;;;;;;;6.67;4.00;;;13.30;35.70;;;;;;10423888;28;20236;-78
2023/10/06 01:05:20;;;;;;;4.40;4.00;;;13.30;35.50;;;;;;10427624;28;20228;-75
2023/10/06 01:10:27;;;;;;;4.63;3.47;;;13.20;35.50;;;;;;10433091;28;20236;-74
2023/10/06 01:15:31;;;;;;;5.00;4.07;;;13.10;35.70;;;;;;10423249;28;20237;-75
2023/10/06 01:20:40;;;;;;;6.77;3.70;;;13.10;35.50;;;;;;10428683;28;20251;-78
2023/10/06 01:25:45;;;;;;;4.80;3.57;;;13.00;35.60;;;;;;10425923;28;20225;-78
2023/10/06 01:30:49;;;;;;;3.57;3.20;;;13.00;35.80;;;;;;10429893;28;20233;-78
2023/10/06 01:35:52;;;;;;;5.30;3.40;;;13.00;35.50;;;;;;10424299;28;20328;-75
2023/10/06 01:41:02;;;;;;;6.03;3.67;;;13.00;35.60;;;;;;10418408;28;20233;-75
2023/10/06 01:46:07;;;;;;;5.57;3.33;;;12.90;35.90;;;;;;10429044;28;20236;-76
2023/10/06 01:51:15;;;;;;;4.33;3.27;;;12.90;35.50;;;;;;10431619;28;20233;-76
2023/10/06 01:56:22;;;;;;;5.07;3.70;;;12.80;35.50;;;;;;10425376;28;20240;-74
2023/10/06 02:01:25;;;;;;;3.63;3.00;;;12.80;35.70;;;;;;10427781;28;20225;-74
2023/10/06 02:06:29;;;;;;;4.87;3.50;;;12.80;35.40;;;;;;10425970;28;20283;-74
2023/10/06 02:11:35;;;;;;;5.77;3.57;;;12.70;35.40;;;;;;10426607;28;20605;-74
2023/10/06 02:16:38;;;;;;;6.07;4.07;;;12.70;35.60;;;;;;10438135;28;20221;-74
2023/10/06 02:21:42;;;;;;;4.97;3.40;;;12.70;35.60;;;;;;10436935;28;20255;-74
2023/10/06 02:26:50;;;;;;;4.10;3.00;;;12.60;35.50;;;;;;10432352;28;20225;-74
2023/10/06 02:32:00;;;;;;;4.67;3.47;;;12.60;35.60;;;;;;10434382;28;20252;-79
2023/10/06 02:37:06;;;;;;;5.50;3.83;;;12.50;35.60;;;;;;10429855;28;20236;-78
2023/10/06 02:42:19;;;;;;;4.73;3.40;;;12.50;35.60;;;;;;10433777;28;20612;-79
2023/10/06 02:47:27;;;;;;;4.23;3.33;;;12.50;35.70;;;;;;10434288;28;20682;-79
2023/10/06 02:52:37;;;;;;;4.53;3.53;;;12.50;35.40;;;;;;10434736;28;20229;-79
2023/10/06 02:57:50;;;;;;;3.50;3.03;;;12.40;35.20;;;;;;10437721;28;20232;-79
2023/10/06 03:02:56;;;;;;;3.47;3.10;;;12.30;35.40;;;;;;10430089;28;20229;-78
2023/10/06 03:08:00;;;;;;;4.40;3.33;;;12.20;35.60;;;;;;10434138;28;20225;-78
2023/10/06 03:13:08;;;;;;;3.50;2.83;;;12.20;35.70;;;;;;10431573;28;20283;-76
2023/10/06 03:18:12;;;;;;;6.73;3.70;;;12.10;35.70;;;;;;10429987;28;20723;-75
2023/10/06 03:23:31;;;;;;;4.20;3.23;;;12.20;35.80;;;;;;10437035;28;20225;-75
2023/10/06 03:28:37;;;;;;;3.87;3.47;;;12.20;35.80;;;;;;10430207;28;20778;-75
2023/10/06 03:33:40;;;;;;;4.50;3.07;;;12.20;35.80;;;;;;10423947;28;20221;-75
2023/10/06 03:38:52;;;;;;;5.17;3.70;;;12.20;35.30;;;;;;10426034;28;20320;-75
2023/10/06 03:43:59;;;;;;;4.07;2.90;;;12.10;35.40;;;;;;10429337;28;20723;-75
2023/10/06 03:49:03;;;;;;;4.10;3.13;;;12.10;35.60;;;;;;10423542;28;20232;-77
2023/10/06 03:54:07;;;;;;;4.73;3.47;;;12.00;35.60;;;;;;10424623;28;20237;-76
2023/10/06 03:59:15;;;;;;;7.37;5.33;;;12.00;35.60;;;;;;10429044;28;20741;-76
2023/10/06 04:04:22;;;;;;;7.83;6.00;;;12.00;35.60;;;;;;10428560;28;20226;-75
2023/10/06 04:09:28;;;;;;;8.80;6.20;;;12.00;35.60;;;;;;10429305;28;20232;-74
2023/10/06 04:14:33;;;;;;;8.97;6.33;;;12.00;35.60;;;;;;10430495;28;20243;-74
2023/10/06 04:19:36;;;;;;;7.00;5.33;;;11.90;35.60;;;;;;10433746;28;20225;-74
2023/10/06 04:24:40;;;;;;;6.33;5.03;;;11.80;35.50;;;;;;10431500;28;20220;-74
2023/10/06 04:29:44;;;;;;;5.37;4.63;;;11.80;35.50;;;;;;10430184;28;20320;-74
2023/10/06 04:34:48;;;;;;;5.37;4.47;;;11.80;35.50;;;;;;10427869;28;21549;-78
2023/10/06 04:39:52;;;;;;;5.93;5.07;;;11.70;35.40;;;;;;10425324;28;20318;-80
2023/10/06 04:44:57;;;;;;;5.57;4.90;;;11.70;36.10;;;;;;10424258;28;20236;-78
2023/10/06 04:50:00;;;;;;;4.77;4.27;;;11.60;35.30;;;;;;10425149;28;20228;-77
2023/10/06 04:55:04;;;;;;;7.77;6.03;;;11.50;35.20;;;;;;10425930;28;20852;-77
2023/10/06 05:00:15;;;;;;;6.57;5.97;;;11.50;35.50;;;;;;10427922;28;20221;-76
2023/10/06 05:05:20;;;;;;;6.13;5.40;;;11.40;35.80;;;;;;10424356;28;20223;-79
2023/10/06 05:10:26;;;;;;;5.03;4.53;;;11.40;35.70;;;;;;10425722;28;20601;-77
2023/10/06 05:15:31;;;;;;;4.50;4.00;;;11.40;35.70;;;;;;10425374;28;20243;-76
2023/10/06 05:20:35;;;;;;;4.37;3.93;;;11.40;35.90;;;;;;10430841;28;20229;-77
2023/10/06 05:25:39;;;;;;;5.47;3.50;;;11.40;35.90;;;;;;10422786;28;20312;-79
2023/10/06 05:30:45;;;;;;;5.40;3.70;;;11.40;35.90;;;;;;10419390;28;20253;-79
2023/10/06 05:35:48;;;;;;;7.10;4.20;;;11.40;36.10;;;;;;10419465;28;20245;-78
2023/10/06 05:40:51;;;;;;;4.90;4.03;;;11.40;35.80;;;;;;10421614;28;20233;-78
2023/10/06 05:45:57;;;;;;;3.90;3.30;;;11.30;35.70;;;;;;10421837;28;20251;-79
2023/10/06 05:51:04;;;;;;;4.80;4.00;;;11.30;36.00;;;;;;10434185;28;20380;-78
2023/10/06 05:56:20;;;;;;;5.23;3.80;;;11.20;36.10;;;;;;10427680;28;20222;-79
2023/10/06 06:01:28;;;;;;;4.63;3.50;;;11.20;37.00;;;;;;10427830;28;20657;-79
2023/10/06 06:06:36;;;;;;;5.90;3.93;;;11.10;36.50;;;;;;10437189;28;20245;-77
2023/10/06 06:11:39;;;;;;;4.00;3.10;;;11.20;36.40;;;;;;10429351;28;20303;-77
2023/10/06 06:16:44;;;;;;;5.80;3.67;;;11.20;36.40;;;;;;10438254;28;20233;-76
2023/10/06 06:21:49;;;;;;;6.27;4.07;;;11.20;36.90;;;;;;10411943;28;20231;-77
2023/10/06 06:26:52;;;;;;;6.03;3.60;;;11.20;36.80;;;;;;10429546;28;20780;-79
2023/10/06 06:31:57;;;;;;;6.43;3.83;;;11.20;36.90;;;;;;10431651;28;20673;-78
2023/10/06 06:37:01;;;;;;;6.03;4.07;;;11.30;37.50;;;;;;10433743;28;20233;-78
2023/10/06 06:42:05;;;;;;;11.77;4.50;;;11.30;37.60;;;;;;10425271;28;20816;-78
2023/10/06 06:47:09;;;;;;;5.43;3.67;;;11.40;37.50;;;;;;10429552;28;20233;-78
2023/10/06 06:52:14;;;;;;;8.53;4.40;;;11.50;37.90;;;;;;10424067;28;20229;-79
2023/10/06 06:57:17;;;;;;;6.33;4.33;;;11.60;37.90;;;;;;10425556;28;20263;-79
2023/10/06 07:02:22;;;;;;;6.57;4.40;;;11.70;38.00;;;;;;10425317;28;20216;-79
2023/10/06 07:07:32;;;;;;;7.50;3.73;;;11.70;38.50;;;;;;10431401;28;20233;-79
2023/10/06 07:12:39;;;;;;;6.13;4.37;;;11.80;38.90;;;;;;10427449;28;20233;-78
2023/10/06 07:17:48;;;;;;;7.23;4.63;;;11.90;38.60;;;;;;10428266;28;20236;-77
2023/10/06 07:22:53;;;;;;;8.87;4.83;;;12.00;39.90;;;;;;10429580;28;20225;-78
2023/10/06 07:27:59;;;;;;;8.80;5.30;;;12.10;39.40;;;;;;10426251;28;20239;-78
2023/10/06 07:38:24;;;;;;;9.07;5.70;;;12.40;40.20;;;;;;10426904;28;20695;-76
2023/10/06 07:43:28;;;;;;;10.17;5.70;;;12.60;40.20;;;;;;10411987;28;20229;-76
2023/10/06 07:48:33;;;;;;;10.67;6.23;;;12.80;40.30;;;;;;10418838;28;20309;-76
2023/10/06 07:53:38;;;;;;;11.67;7.10;;;13.10;41.30;;;;;;10422330;28;20297;-74
2023/10/06 07:58:42;;;;;;;10.20;7.10;;;13.30;40.80;;;;;;10426463;28;20232;-77
2023/10/06 08:03:46;;;;;;;9.83;7.07;;;13.60;41.00;;;;;;10422973;28;20256;-76
2023/10/06 08:08:50;;;;;;;7.60;6.73;;;13.90;41.50;;;;;;10423060;28;20303;-75
2023/10/06 08:13:54;;;;;;;8.60;6.37;;;14.20;41.00;;;;;;10425672;28;20239;-78
2023/10/06 08:19:00;;;;;;;8.47;6.40;;;14.50;41.00;;;;;;10409000;28;20232;-78
2023/10/06 08:24:05;;;;;;;9.47;6.27;;;14.90;41.50;;;;;;10409832;28;20228;-75
2023/10/06 08:29:09;;;;;;;9.70;6.00;;;15.20;41.30;;;;;;10403767;28;20818;-76
2023/10/06 08:34:14;;;;;;;8.13;5.73;;;15.50;41.20;;;;;;10399323;28;20276;-75
2023/10/06 08:39:17;;;;;;;8.87;5.97;;;15.90;41.20;;;;;;10408659;28;20233;-75
2023/10/06 08:44:22;;;;;;;7.87;5.60;;;16.20;40.90;;;;;;10415125;28;20536;-75
2023/10/06 08:49:27;;;;;;;7.23;5.60;;;16.50;40.80;;;;;;10407849;28;20248;-75
2023/10/06 08:54:32;;;;;;;8.13;4.73;;;16.70;40.50;;;;;;10406391;28;20233;-75
2023/10/06 08:59:36;;;;;;;7.87;5.30;;;17.00;40.10;;;;;;10416012;28;20312;-74
2023/10/06 09:04:41;;;;;;;8.80;5.23;;;17.30;40.20;;;;;;10412389;28;20836;-74
2023/10/06 09:09:47;;;;;;;7.47;4.20;;;17.50;39.60;;;;;;10409973;28;20244;-75
2023/10/06 09:14:54;;;;;;;7.60;4.93;;;17.80;39.50;;;;;;10411333;28;20256;-73
2023/10/06 09:19:59;;;;;;;8.87;4.97;;;18.00;39.50;;;;;;10405264;28;20344;-75
2023/10/06 09:25:04;;;;;;;7.17;4.93;;;18.20;39.30;;;;;;10409487;28;20641;-75
2023/10/06 09:30:10;;;;;;;9.03;5.13;;;18.50;39.50;;;;;;10410546;28;20327;-75
2023/10/06 09:35:22;;;;;;;10.13;5.47;;;18.80;39.00;;;;;;10410629;28;20354;-75
2023/10/06 09:40:32;;;;;;;8.57;5.43;;;19.00;38.40;;;;;;10421855;28;20233;-79
2023/10/06 09:45:37;;;;;;;8.47;5.33;;;19.20;38.90;;;;;;10431083;28;20258;-79
2023/10/06 09:50:43;;;;;;;8.27;5.33;;;19.40;38.30;;;;;;10436955;28;20236;-79
2023/10/06 09:55:49;;;;;;;12.43;5.23;;;19.50;37.80;;;;;;10426434;28;20226;-79
2023/10/06 10:00:53;;;;;;;8.20;5.00;;;19.80;37.90;;;;;;10429152;28;21039;-75
2023/10/06 10:06:00;;;;;;;8.40;5.20;;;19.90;37.70;;;;;;10426135;28;20313;-75
2023/10/06 10:11:08;;;;;;;8.93;5.17;;;20.10;36.60;;;;;;10423818;28;20221;-76
2023/10/06 10:16:25;;;;;;;8.83;5.43;;;20.20;36.70;;;;;;10410159;28;20315;-74
2023/10/06 10:21:34;;;;;;;8.80;4.93;;;20.40;36.90;;;;;;10416224;28;20307;-74
2023/10/06 10:26:39;;;;;;;7.77;5.07;;;20.60;37.10;;;;;;10416725;28;20228;-74
2023/10/06 10:31:44;;;;;;;7.80;4.73;;;20.80;36.60;;;;;;10417528;28;20271;-74
2023/10/06 10:37:17;;;;;;;6.47;4.43;;;20.90;36.20;;;;;;10416422;28;20217;-74
2023/10/06 10:42:23;;;;;;;7.70;4.70;;;21.00;35.10;;;;;;10411373;28;20786;-73
2023/10/06 10:47:26;;;;;;;7.87;5.07;;;21.10;35.30;;;;;;10410170;28;20981;-74
2023/10/06 10:52:33;;;;;;;10.30;5.10;;;21.10;35.90;;;;;;10413254;28;20220;-75
2023/10/06 10:57:44;;;;;;;8.20;5.20;;;21.20;35.20;;;;;;10407200;28;20252;-75
2023/10/06 11:03:04;;;;;;;7.47;4.90;;;21.40;34.70;;;;;;10416420;28;20755;-75
2023/10/06 11:08:10;;;;;;;6.70;5.07;;;21.50;34.60;;;;;;10407473;28;20235;-75
2023/10/06 11:13:16;;;;;;;8.07;5.23;;;21.60;34.70;;;;;;10409979;28;20261;-75
2023/10/06 11:18:22;;;;;;;6.90;4.53;;;21.70;34.50;;;;;;10415223;28;20475;-76
2023/10/06 11:23:43;;;;;;;9.53;5.23;;;21.90;34.80;;;;;;10412414;28;20699;-75
2023/10/06 11:28:47;;;;;;;6.20;4.53;;;22.00;33.70;;;;;;10412003;28;20229;-75
2023/10/06 11:33:51;;;;;;;5.57;4.10;;;22.00;34.10;;;;;;10415056;28;20229;-74
2023/10/06 11:38:55;;;;;;;6.57;4.40;;;22.00;34.00;;;;;;10426916;28;20259;-75
2023/10/06 11:43:58;;;;;;;7.03;4.50;;;22.00;33.90;;;;;;10429080;28;20656;-74
2023/10/06 11:49:11;;;;;;;7.53;4.80;;;22.10;33.80;;;;;;10425377;28;20232;-75
2023/10/06 11:54:16;;;;;;;6.90;4.37;;;22.10;32.40;;;;;;10431720;28;20264;-75
2023/10/06 11:59:20;;;;;;;8.00;4.43;;;22.10;33.00;;;;;;10428002;28;20222;-75
2023/10/06 12:04:26;;;;;;;7.87;4.13;;;22.10;33.30;;;;;;10422673;28;20231;-75
2023/10/06 12:09:33;;;;;;;8.07;4.90;;;22.20;33.30;;;;;;10428528;28;20237;-75
2023/10/06 12:14:36;;;;;;;6.30;4.30;;;22.20;32.40;;;;;;10418402;28;20229;-75
2023/10/06 12:19:42;;;;;;;5.90;4.80;;;22.20;33.10;;;;;;10426066;28;20225;-76
2023/10/06 12:24:46;;;;;;;7.53;4.57;;;22.30;32.70;;;;;;10418630;28;20817;-75
2023/10/06 12:29:49;;;;;;;6.20;4.40;;;22.30;32.20;;;;;;10418502;28;20235;-75
2023/10/06 12:34:53;;;;;;;8.07;4.67;;;22.30;32.80;;;;;;10417565;28;20932;-74
2023/10/06 12:39:57;;;;;;;8.53;4.73;;;22.30;32.60;;;;;;10416116;28;20319;-74
2023/10/06 12:45:02;;;;;;;6.47;4.17;;;22.30;32.20;;;;;;10420780;28;20213;-75
2023/10/06 12:50:08;;;;;;;6.50;4.67;;;22.40;32.30;;;;;;10426226;28;20933;-75
2023/10/06 12:55:13;;;;;;;6.70;3.87;;;22.40;32.40;;;;;;10419407;28;21085;-75
2023/10/06 13:00:17;;;;;;;6.30;4.60;;;22.40;31.90;;;;;;10424882;28;20239;-76
2023/10/06 13:05:22;;;;;;;5.60;4.00;;;22.50;32.40;;;;;;10421472;28;20252;-75
2023/10/06 13:10:27;;;;;;;6.30;4.67;;;22.40;32.10;;;;;;10427792;28;20233;-74
2023/10/06 13:15:30;;;;;;;5.77;4.30;;;22.40;31.70;;;;;;10425111;28;20308;-75
2023/10/06 13:20:34;;;;;;;8.63;4.43;;;22.40;32.00;;;;;;10427038;28;20324;-75
2023/10/06 13:25:38;;;;;;;6.40;4.03;;;22.40;31.80;;;;;;10424818;28;20236;-75
2023/10/06 13:30:43;;;;;;;7.63;4.37;;;22.40;31.70;;;;;;10416085;28;20429;-76
2023/10/06 13:35:48;;;;;;;4.73;3.80;;;22.40;31.30;;;;;;10427101;28;20318;-75
2023/10/06 13:40:54;;;;;;;5.60;3.63;;;22.50;31.90;;;;;;10417423;28;20236;-75
2023/10/06 13:45:59;;;;;;;5.07;4.00;;;22.50;31.60;;;;;;10423695;28;20233;-75
2023/10/06 13:51:04;;;;;;;6.63;4.57;;;22.60;31.20;;;;;;10418946;28;20218;-75
2023/10/06 13:56:09;;;;;;;7.40;4.13;;;22.60;31.30;;;;;;10424912;28;20814;-75
2023/10/06 14:01:12;;;;;;;7.50;3.53;;;22.60;30.90;;;;;;10429934;28;20229;-74
2023/10/06 14:06:16;;;;;;;4.80;3.80;;;22.70;31.30;;;;;;10423744;28;20928;-74
2023/10/06 14:11:21;;;;;;;5.03;3.97;;;22.70;31.40;;;;;;10431175;28;20256;-74
2023/10/06 14:16:25;;;;;;;6.67;4.13;;;22.70;31.10;;;;;;10430584;28;20235;-76
2023/10/06 14:21:29;;;;;;;4.47;3.10;;;22.70;31.10;;;;;;10431994;28;20237;-74
2023/10/06 14:26:35;;;;;;;6.27;3.60;;;22.70;31.20;;;;;;10430910;28;20650;-78
2023/10/06 14:31:47;;;;;;;7.63;4.70;;;22.80;30.60;;;;;;10426402;28;20789;-76
2023/10/06 14:36:57;;;;;;;5.87;4.10;;;22.80;30.70;;;;;;10427886;28;20315;-74
2023/10/06 14:47:23;;;;;;;6.93;4.07;;;22.90;30.30;;;;;;10421990;28;20225;-76
2023/10/06 14:52:31;;;;;;;5.37;3.47;;;22.90;30.50;;;;;;10433237;28;20228;-75
2023/10/06 14:57:37;;;;;;;4.90;3.57;;;22.90;30.30;;;;;;10429490;28;20801;-75
2023/10/06 15:02:44;;;;;;;5.37;3.80;;;22.90;30.00;;;;;;10429826;28;20232;-76
2023/10/06 15:07:47;;;;;;;6.00;3.53;;;22.90;30.00;;;;;;10432152;28;20614;-76
2023/10/06 15:12:57;;;;;;;4.90;3.57;;;22.80;30.10;;;;;;10431293;28;20851;-75
2023/10/06 15:18:00;;;;;;;5.97;3.93;;;22.80;29.60;;;;;;10425838;28;20229;-75
2023/10/06 15:23:21;;;;;;;4.77;3.47;;;22.80;29.80;;;;;;10429909;28;20302;-74
2023/10/06 15:28:27;;;;;;;4.10;3.20;;;22.80;29.90;;;;;;10429847;28;20286;-74
2023/10/06 15:33:43;;;;;;;5.73;3.70;;;22.80;30.00;;;;;;10423825;28;20224;-74
2023/10/06 15:38:47;;;;;;;5.73;3.90;;;22.80;30.10;;;;;;10422161;28;20777;-74
2023/10/06 15:43:51;;;;;;;6.40;3.57;;;22.80;30.20;;;;;;10428509;28;20729;-74
2023/10/06 15:48:58;;;;;;;7.23;4.20;;;22.80;30.40;;;;;;10424421;28;20248;-75
2023/10/06 15:54:05;;;;;;;5.40;4.57;;;22.80;30.80;;;;;;10423841;28;20229;-76
2023/10/06 15:59:13;;;;;;;4.90;3.47;;;22.80;30.50;;;;;;10424500;28;20687;-75
2023/10/06 16:04:18;;;;;;;6.83;3.40;;;22.70;30.60;;;;;;10426726;28;20308;-75
2023/10/06 16:09:23;;;;;;;5.53;3.50;;;22.60;30.70;;;;;;10426907;28;20245;-74
2023/10/06 16:14:28;;;;;;;6.57;3.87;;;22.60;30.70;;;;;;10428886;28;20240;-76
2023/10/06 16:19:31;;;;;;;7.33;3.70;;;22.50;30.90;;;;;;10425124;28;20228;-76
2023/10/06 16:24:34;;;;;;;4.07;3.43;;;22.40;30.80;;;;;;10421578;28;20224;-77
2023/10/06 16:29:39;;;;;;;4.63;3.40;;;22.30;30.80;;;;;;10422210;28;20228;-75
2023/10/06 16:34:43;;;;;;;4.47;3.63;;;22.20;30.80;;;;;;10427270;28;20307;-75
2023/10/06 16:39:47;;;;;;;6.83;4.30;;;22.10;31.10;;;;;;10425333;28;20710;-75
2023/10/06 16:44:52;;;;;;;5.93;4.67;;;22.00;31.30;;;;;;10417052;28;20607;-77
2023/10/06 16:49:56;;;;;;;6.40;4.77;;;21.90;31.30;;;;;;10424367;28;20267;-77
2023/10/06 16:55:00;;;;;;;5.97;4.50;;;21.70;31.10;;;;;;10417178;28;20225;-77
2023/10/06 17:00:09;;;;;;;5.10;4.17;;;21.50;31.40;;;;;;10426533;28;20220;-77
2023/10/06 17:05:13;;;;;;;6.23;4.00;;;21.40;31.70;;;;;;10417205;28;20737;-77
2023/10/06 17:10:16;;;;;;;4.77;3.60;;;21.30;31.70;;;;;;10417488;28;20270;-78
2023/10/06 17:15:21;;;;;;;5.60;4.47;;;21.20;31.70;;;;;;10421790;28;20227;-77
2023/10/06 17:20:25;;;;;;;8.20;6.30;;;21.10;31.90;;;;;;10423222;28;20229;-78
2023/10/06 17:25:29;;;;;;;8.47;6.27;;;21.00;31.80;;;;;;10425779;28;20253;-75
2023/10/06 17:30:35;;;;;;;6.00;5.40;;;20.80;31.60;;;;;;10424180;28;20226;-75
2023/10/06 17:35:41;;;;;;;5.53;4.83;;;20.60;31.80;;;;;;10424540;28;20228;-75
2023/10/06 17:40:44;;;;;;;5.73;5.00;;;20.50;31.90;;;;;;10417711;28;20228;-74
2023/10/06 17:45:49;;;;;;;5.73;4.80;;;20.40;32.10;;;;;;10422569;28;20225;-78
2023/10/06 17:50:52;;;;;;;8.80;7.53;;;20.30;32.30;;;;;;10428962;28;20615;-77
2023/10/06 17:55:59;;;;;;;10.77;9.37;;;20.20;32.20;;;;;;10431193;28;20228;-77
2023/10/06 18:01:07;;;;;;;10.60;9.50;;;20.20;32.40;;;;;;10429574;28;20239;-77
2023/10/06 18:06:10;;;;;;;12.70;10.10;;;20.00;32.30;;;;;;10428396;28;20252;-79
2023/10/06 18:11:14;;;;;;;10.47;9.47;;;19.80;32.00;;;;;;10431225;28;20660;-78
2023/10/06 18:16:18;;;;;;;9.60;7.87;;;19.40;32.10;;;;;;10425771;28;20597;-79
2023/10/06 18:21:23;;;;;;;11.20;9.90;;;19.10;32.70;;;;;;10424638;28;20232;-78
2023/10/06 18:26:27;;;;;;;12.53;10.90;;;18.90;32.90;;;;;;10424929;28;20733;-78
2023/10/06 18:31:32;;;;;;;10.50;9.40;;;18.70;33.00;;;;;;10424292;28;20225;-78
2023/10/06 18:36:35;;;;;;;11.97;9.13;;;18.40;34.10;;;;;;10418698;28;20231;-75
2023/10/06 18:41:38;;;;;;;9.93;8.13;;;18.30;33.50;;;;;;10415722;28;20221;-77
2023/10/06 18:46:43;;;;;;;10.20;9.20;;;18.30;33.70;;;;;;10420624;28;21043;-75
2023/10/06 18:51:47;;;;;;;7.30;6.60;;;18.20;33.90;;;;;;10420284;28;20622;-74
2023/10/06 18:56:50;;;;;;;8.03;5.80;;;18.00;33.80;;;;;;10423628;28;20221;-74
2023/10/06 19:01:55;;;;;;;7.37;6.27;;;17.80;34.30;;;;;;10430426;28;20237;-73
2023/10/06 19:07:00;;;;;;;6.60;5.57;;;17.70;34.50;;;;;;10427165;28;20641;-74
2023/10/06 19:12:04;;;;;;;7.97;6.60;;;17.70;34.50;;;;;;10429018;28;20751;-77
2023/10/06 19:17:08;;;;;;;9.73;6.10;;;17.60;34.40;;;;;;10432050;28;20236;-77
2023/10/06 19:22:12;;;;;;;6.70;6.00;;;17.60;34.40;;;;;;10417637;28;20323;-77
2023/10/06 19:27:15;;;;;;;7.03;6.33;;;17.70;34.50;;;;;;10426843;28;20312;-78
2023/10/06 19:32:20;;;;;;;11.73;8.80;;;17.70;34.50;;;;;;10423691;28;20316;-79
2023/10/06 19:37:24;;;;;;;8.60;7.10;;;17.70;34.50;;;;;;10422841;28;20252;-75
2023/10/06 19:42:28;;;;;;;9.80;6.47;;;17.60;34.40;;;;;;10421471;28;20235;-75
2023/10/06 19:47:33;;;;;;;10.30;6.83;;;17.50;34.30;;;;;;10428609;28;20278;-75
2023/10/06 19:52:36;;;;;;;7.87;5.83;;;17.30;34.10;;;;;;10427076;28;20855;-75
2023/10/06 19:57:40;;;;;;;8.93;5.60;;;17.10;34.70;;;;;;10425902;28;20237;-78
2023/10/06 20:02:45;;;;;;;9.63;7.47;;;17.00;33.90;;;;;;10429751;28;20308;-78
2023/10/06 20:07:50;;;;;;;7.07;5.60;;;16.80;34.80;;;;;;10425055;28;20229;-78
2023/10/06 20:12:53;;;;;;;6.73;5.87;;;16.70;34.70;;;;;;10430095;28;20308;-78
2023/10/06 20:18:00;;;;;;;9.67;6.47;;;16.70;34.70;;;;;;10429892;28;20263;-78
2023/10/06 20:23:04;;;;;;;9.03;6.70;;;16.70;35.00;;;;;;10424488;28;20710;-77
2023/10/06 20:28:07;;;;;;;11.97;7.13;;;16.60;34.60;;;;;;10429765;28;20263;-77
2023/10/06 20:33:12;;;;;;;9.60;8.33;;;16.60;34.70;;;;;;10421689;28;20252;-77
2023/10/06 20:38:16;;;;;;;8.80;6.70;;;16.60;35.10;;;;;;10423571;28;20319;-77
2023/10/06 20:43:19;;;;;;;6.97;6.23;;;16.60;34.70;;;;;;10423083;28;20235;-77
2023/10/06 20:48:24;;;;;;;8.57;6.27;;;16.60;34.70;;;;;;10425490;28;20316;-77
2023/10/06 20:53:28;;;;;;;11.77;8.53;;;16.60;35.00;;;;;;10424222;28;20236;-77
2023/10/06 20:58:31;;;;;;;9.93;8.30;;;16.50;34.50;;;;;;10430901;28;20260;-77
2023/10/06 21:03:36;;;;;;;8.90;7.00;;;16.50;34.70;;;;;;10425758;28;21034;-78
2023/10/06 21:08:40;;;;;;;12.03;7.90;;;16.40;35.00;;;;;;10429482;28;20216;-77
2023/10/06 21:13:44;;;;;;;9.17;7.17;;;16.40;34.70;;;;;;10424673;28;20247;-74
2023/10/06 21:18:49;;;;;;;9.30;7.73;;;16.30;34.70;;;;;;10431008;28;20236;-74
2023/10/06 21:23:52;;;;;;;8.97;6.37;;;16.30;35.20;;;;;;10435498;28;20235;-74
2023/10/06 21:28:55;;;;;;;6.00;5.33;;;16.20;34.80;;;;;;10435647;28;20311;-74
2023/10/06 21:34:00;;;;;;;7.93;5.53;;;16.20;34.90;;;;;;10432108;28;20225;-74
2023/10/06 21:39:04;;;;;;;7.20;5.13;;;16.10;35.20;;;;;;10432924;28;20248;-74
2023/10/06 21:44:07;;;;;;;7.03;5.80;;;16.10;34.80;;;;;;10431796;28;20316;-74
2023/10/06 21:49:13;;;;;;;6.43;4.83;;;16.00;35.00;;;;;;10430450;28;20229;-74
2023/10/06 21:54:16;;;;;;;6.10;5.27;;;15.90;35.30;;;;;;10428414;28;20227;-74
2023/10/06 21:59:19;;;;;;;5.80;5.00;;;15.90;35.10;;;;;;10435647;28;20237;-74
2023/10/06 22:04:24;;;;;;;5.80;5.00;;;15.80;35.10;;;;;;10435865;28;20224;-74
2023/10/06 22:09:28;;;;;;;6.20;5.40;;;15.80;35.30;;;;;;10435745;28;20275;-74
2023/10/06 22:14:34;;;;;;;7.03;5.80;;;15.60;34.70;;;;;;10429921;28;20232;-74
2023/10/06 22:19:40;;;;;;;6.07;5.47;;;15.40;35.00;;;;;;10431971;28;20233;-74
2023/10/06 22:24:44;;;;;;;5.93;4.90;;;15.20;35.50;;;;;;10433079;28;20237;-74
2023/10/06 22:29:48;;;;;;;6.10;5.27;;;15.10;35.50;;;;;;10435923;28;20316;-78
2023/10/06 22:34:53;;;;;;;7.83;5.73;;;15.10;35.60;;;;;;10441301;28;20609;-77
2023/10/06 22:39:56;;;;;;;6.50;5.10;;;15.00;36.10;;;;;;10436071;28;20232;-77
2023/10/06 22:45:00;;;;;;;5.73;4.70;;;15.00;35.70;;;;;;10430383;28;20231;-77
2023/10/06 22:50:05;;;;;;;7.90;5.57;;;14.90;35.80;;;;;;10433362;28;20318;-77
2023/10/06 22:55:11;;;;;;;5.43;4.93;;;14.90;36.30;;;;;;10434973;28;20241;-77
2023/10/06 23:00:17;;;;;;;5.90;5.37;;;14.90;35.90;;;;;;10427772;28;20342;-77
2023/10/06 23:05:23;;;;;;;6.03;4.93;;;14.90;36.00;;;;;;10432034;28;20228;-77
2023/10/06 23:10:27;;;;;;;5.97;4.90;;;14.80;36.40;;;;;;10425561;28;20222;-77
2023/10/06 23:15:31;;;;;;;5.30;4.80;;;14.80;36.20;;;;;;10435222;28;20623;-77
2023/10/06 23:20:41;;;;;;;6.63;5.60;;;14.80;36.10;;;;;;10435178;28;20221;-77
2023/10/06 23:25:49;;;;;;;7.33;5.70;;;14.80;36.30;;;;;;10433807;28;20225;-77
2023/10/06 23:30:52;;;;;;;6.70;5.37;;;14.70;35.90;;;;;;10432934;28;20713;-77
2023/10/06 23:35:57;;;;;;;5.53;5.03;;;14.70;35.90;;;;;;10429715;28;20244;-77
2023/10/06 23:41:06;;;;;;;5.67;4.70;;;14.50;36.00;;;;;;10426770;28;20262;-77
2023/10/06 23:46:14;;;;;;;5.83;4.63;;;14.40;35.90;;;;;;10429836;28;20646;-76
2023/10/06 23:51:21;;;;;;;4.80;4.40;;;14.40;36.20;;;;;;10432520;28;20816;-77
2023/10/06 23:56:25;;;;;;;5.53;4.97;;;14.40;36.40;;;;;;10424803;28;20230;-77
